Главная страница
METAR-TAF:

METAR-TAF

Аэропорты :

Тулча, Румыния

широта: 45-11N, долгота: 028-49E, высота над уровнем моря: 4 м

Текущие метеонаблюдения

Эта сводка был подготовлена 36 минут назад, в 00:30 UTC
Ветер 6 Узел от северный, изменяющийся между северно-северо-западный и северо-северо-восточный
Температура 10°C
Влажность 71%
Давление 1024 hPa
Видимость: 9000 м

METAR: LRTC 160030Z AUTO 36006KT 330V030 9000 NCD 10/05 Q1024

Время: 04:06 (01:06 UTC)

Прогноз

Эта сводка был подготовлена 11 часа и 6 минут назад, в 14:00 UTC
Прогноз действительный с 15-го 15 UTC до 15-го 24 UTC
Ветер 10 Узел от северо-восточный
Видимость 10 км и более
Нет облачности ниже 1500 м, и нет кучево-дождевой облачности

TAF: LRTC 151400Z 1515/1524 04010KT CAVOK

Метеонаблюдения и прогнозы для более 4000 аэропортов (сводки METAR и TAF).

Имеющиеся станции представлены на карте желтыми и красными точками.

Чтобы увидеть название станции, наведите на нее мышь.

Затем щелкните, чтобы увидеть метеонаблюдения и метеопрогнозы.

Управление картой: чтобы увеличить масштаб, щелкните зеленые кнопки с черным крестиком; чтобы уменьшить масштаб, щелкните зеленую кнопку с тире; для просмотра соседних карт щелкайте зеленые стрелки.


METAR-TAF: